sensor_id;sensor_type;location;lat;lon;timestamp;P1;durP1;ratioP1;P2;durP2;ratioP2
6133;SDS011;3098;42.678;23.364;2023-03-14T00:01:40;7.77;;;3.50;;
6133;SDS011;3098;42.678;23.364;2023-03-14T00:04:09;7.17;;;3.17;;
6133;SDS011;3098;42.678;23.364;2023-03-14T00:06:36;6.13;;;2.70;;
6133;SDS011;3098;42.678;23.364;2023-03-14T00:09:03;6.00;;;2.87;;
6133;SDS011;3098;42.678;23.364;2023-03-14T00:11:31;4.47;;;2.87;;
6133;SDS011;3098;42.678;23.364;2023-03-14T00:14:00;4.80;;;2.17;;
6133;SDS011;3098;42.678;23.364;2023-03-14T00:16:28;4.60;;;2.80;;
6133;SDS011;3098;42.678;23.364;2023-03-14T00:18:54;6.00;;;3.00;;
6133;SDS011;3098;42.678;23.364;2023-03-14T00:21:21;9.37;;;2.30;;
6133;SDS011;3098;42.678;23.364;2023-03-14T00:23:48;5.50;;;2.83;;
6133;SDS011;3098;42.678;23.364;2023-03-14T00:26:16;4.67;;;2.40;;
6133;SDS011;3098;42.678;23.364;2023-03-14T00:28:45;6.77;;;2.20;;
6133;SDS011;3098;42.678;23.364;2023-03-14T00:31:14;2.73;;;1.97;;
6133;SDS011;3098;42.678;23.364;2023-03-14T00:33:42;5.77;;;2.10;;
6133;SDS011;3098;42.678;23.364;2023-03-14T00:36:10;6.00;;;2.83;;
6133;SDS011;3098;42.678;23.364;2023-03-14T00:38:40;4.83;;;2.40;;
6133;SDS011;3098;42.678;23.364;2023-03-14T00:41:09;4.60;;;1.97;;
6133;SDS011;3098;42.678;23.364;2023-03-14T00:43:38;6.63;;;2.80;;
6133;SDS011;3098;42.678;23.364;2023-03-14T00:46:05;7.03;;;3.13;;
6133;SDS011;3098;42.678;23.364;2023-03-14T00:48:34;6.60;;;3.07;;
6133;SDS011;3098;42.678;23.364;2023-03-14T00:51:01;6.53;;;3.13;;
6133;SDS011;3098;42.678;23.364;2023-03-14T00:53:28;5.93;;;2.87;;
6133;SDS011;3098;42.678;23.364;2023-03-14T00:55:55;7.27;;;3.30;;
6133;SDS011;3098;42.678;23.364;2023-03-14T00:58:22;8.50;;;2.87;;
6133;SDS011;3098;42.678;23.364;2023-03-14T01:00:49;11.70;;;3.10;;
6133;SDS011;3098;42.678;23.364;2023-03-14T01:03:16;6.33;;;3.00;;
6133;SDS011;3098;42.678;23.364;2023-03-14T01:05:44;2.57;;;2.07;;
6133;SDS011;3098;42.678;23.364;2023-03-14T01:08:11;4.40;;;2.37;;
6133;SDS011;3098;42.678;23.364;2023-03-14T01:10:38;6.30;;;1.93;;
6133;SDS011;3098;42.678;23.364;2023-03-14T01:13:06;7.00;;;2.57;;
6133;SDS011;3098;42.678;23.364;2023-03-14T01:15:34;4.10;;;2.10;;
6133;SDS011;3098;42.678;23.364;2023-03-14T01:18:01;3.00;;;2.10;;
6133;SDS011;3098;42.678;23.364;2023-03-14T01:20:29;6.80;;;1.60;;
6133;SDS011;3098;42.678;23.364;2023-03-14T01:22:57;6.93;;;3.20;;
6133;SDS011;3098;42.678;23.364;2023-03-14T01:25:24;5.90;;;3.30;;
6133;SDS011;3098;42.678;23.364;2023-03-14T01:27:51;7.00;;;2.87;;
6133;SDS011;3098;42.678;23.364;2023-03-14T01:30:18;4.00;;;3.00;;
6133;SDS011;3098;42.678;23.364;2023-03-14T01:32:45;8.80;;;3.33;;
6133;SDS011;3098;42.678;23.364;2023-03-14T01:35:12;4.70;;;2.63;;
6133;SDS011;3098;42.678;23.364;2023-03-14T01:37:39;8.20;;;2.63;;
6133;SDS011;3098;42.678;23.364;2023-03-14T01:43:05;7.73;;;2.53;;
6133;SDS011;3098;42.678;23.364;2023-03-14T01:48:46;4.80;;;2.53;;
6133;SDS011;3098;42.678;23.364;2023-03-14T01:51:19;2.17;;;1.90;;
6133;SDS011;3098;42.678;23.364;2023-03-14T01:53:51;14.80;;;2.47;;
6133;SDS011;3098;42.678;23.364;2023-03-14T01:56:25;6.03;;;2.03;;
6133;SDS011;3098;42.678;23.364;2023-03-14T01:58:52;3.73;;;2.50;;
6133;SDS011;3098;42.678;23.364;2023-03-14T02:01:20;9.53;;;3.43;;
6133;SDS011;3098;42.678;23.364;2023-03-14T02:03:52;7.30;;;3.07;;
6133;SDS011;3098;42.678;23.364;2023-03-14T02:06:23;4.77;;;2.07;;
6133;SDS011;3098;42.678;23.364;2023-03-14T02:08:53;5.33;;;2.30;;
6133;SDS011;3098;42.678;23.364;2023-03-14T02:11:21;3.37;;;2.23;;
6133;SDS011;3098;42.678;23.364;2023-03-14T02:13:55;5.13;;;2.50;;
6133;SDS011;3098;42.678;23.364;2023-03-14T02:16:22;4.50;;;2.77;;
6133;SDS011;3098;42.678;23.364;2023-03-14T02:18:50;3.20;;;2.30;;
6133;SDS011;3098;42.678;23.364;2023-03-14T02:21:18;5.40;;;2.77;;
6133;SDS011;3098;42.678;23.364;2023-03-14T02:23:53;4.00;;;1.77;;
6133;SDS011;3098;42.678;23.364;2023-03-14T02:26:31;5.03;;;2.47;;
6133;SDS011;3098;42.678;23.364;2023-03-14T02:29:04;4.60;;;2.37;;
6133;SDS011;3098;42.678;23.364;2023-03-14T02:31:32;5.23;;;2.50;;
6133;SDS011;3098;42.678;23.364;2023-03-14T02:33:59;6.80;;;2.13;;
6133;SDS011;3098;42.678;23.364;2023-03-14T02:36:27;5.63;;;2.60;;
6133;SDS011;3098;42.678;23.364;2023-03-14T02:38:58;7.73;;;2.80;;
6133;SDS011;3098;42.678;23.364;2023-03-14T02:41:33;7.63;;;3.33;;
6133;SDS011;3098;42.678;23.364;2023-03-14T02:44:01;6.43;;;2.70;;
6133;SDS011;3098;42.678;23.364;2023-03-14T02:46:29;4.87;;;2.47;;
6133;SDS011;3098;42.678;23.364;2023-03-14T02:48:57;4.87;;;2.83;;
6133;SDS011;3098;42.678;23.364;2023-03-14T02:51:28;6.70;;;2.87;;
6133;SDS011;3098;42.678;23.364;2023-03-14T02:53:56;4.50;;;2.10;;
6133;SDS011;3098;42.678;23.364;2023-03-14T02:56:23;6.73;;;2.63;;
6133;SDS011;3098;42.678;23.364;2023-03-14T02:58:50;6.27;;;2.77;;
6133;SDS011;3098;42.678;23.364;2023-03-14T03:01:17;13.10;;;3.37;;
6133;SDS011;3098;42.678;23.364;2023-03-14T03:03:46;7.30;;;2.97;;
6133;SDS011;3098;42.678;23.364;2023-03-14T03:06:13;6.17;;;2.63;;
6133;SDS011;3098;42.678;23.364;2023-03-14T03:08:39;9.47;;;3.93;;
6133;SDS011;3098;42.678;23.364;2023-03-14T03:11:06;5.83;;;3.47;;
6133;SDS011;3098;42.678;23.364;2023-03-14T03:13:33;5.77;;;2.87;;
6133;SDS011;3098;42.678;23.364;2023-03-14T03:16:01;5.80;;;2.33;;
6133;SDS011;3098;42.678;23.364;2023-03-14T03:18:28;5.53;;;2.43;;
6133;SDS011;3098;42.678;23.364;2023-03-14T03:20:58;6.87;;;3.37;;
6133;SDS011;3098;42.678;23.364;2023-03-14T03:23:26;7.33;;;3.27;;
6133;SDS011;3098;42.678;23.364;2023-03-14T03:25:53;9.20;;;2.80;;
6133;SDS011;3098;42.678;23.364;2023-03-14T03:28:21;5.60;;;2.33;;
6133;SDS011;3098;42.678;23.364;2023-03-14T03:30:48;1.97;;;1.77;;
6133;SDS011;3098;42.678;23.364;2023-03-14T03:33:14;16.90;;;2.97;;
6133;SDS011;3098;42.678;23.364;2023-03-14T03:35:42;5.67;;;2.97;;
6133;SDS011;3098;42.678;23.364;2023-03-14T03:38:12;5.93;;;2.87;;
6133;SDS011;3098;42.678;23.364;2023-03-14T03:40:39;7.90;;;2.40;;
6133;SDS011;3098;42.678;23.364;2023-03-14T03:43:06;6.90;;;2.97;;
6133;SDS011;3098;42.678;23.364;2023-03-14T03:45:33;7.77;;;3.40;;
6133;SDS011;3098;42.678;23.364;2023-03-14T03:48:00;7.90;;;2.77;;
6133;SDS011;3098;42.678;23.364;2023-03-14T03:50:28;5.10;;;2.87;;
6133;SDS011;3098;42.678;23.364;2023-03-14T03:52:55;7.57;;;3.37;;
6133;SDS011;3098;42.678;23.364;2023-03-14T03:55:24;4.77;;;2.63;;
6133;SDS011;3098;42.678;23.364;2023-03-14T03:57:53;12.87;;;4.13;;
6133;SDS011;3098;42.678;23.364;2023-03-14T04:00:20;9.50;;;4.27;;
6133;SDS011;3098;42.678;23.364;2023-03-14T04:02:47;6.30;;;3.57;;
6133;SDS011;3098;42.678;23.364;2023-03-14T04:05:14;7.07;;;3.73;;
6133;SDS011;3098;42.678;23.364;2023-03-14T04:07:41;6.53;;;4.17;;
6133;SDS011;3098;42.678;23.364;2023-03-14T04:10:09;9.97;;;4.20;;
6133;SDS011;3098;42.678;23.364;2023-03-14T04:12:38;13.30;;;4.03;;
6133;SDS011;3098;42.678;23.364;2023-03-14T04:15:05;8.03;;;4.53;;
6133;SDS011;3098;42.678;23.364;2023-03-14T04:17:33;9.37;;;4.37;;
6133;SDS011;3098;42.678;23.364;2023-03-14T04:20:00;13.33;;;4.10;;
6133;SDS011;3098;42.678;23.364;2023-03-14T04:22:29;6.13;;;3.17;;
6133;SDS011;3098;42.678;23.364;2023-03-14T04:24:56;4.93;;;2.87;;
6133;SDS011;3098;42.678;23.364;2023-03-14T04:27:23;10.60;;;3.53;;
6133;SDS011;3098;42.678;23.364;2023-03-14T04:29:51;3.40;;;2.73;;
6133;SDS011;3098;42.678;23.364;2023-03-14T04:32:18;7.67;;;3.27;;
6133;SDS011;3098;42.678;23.364;2023-03-14T04:34:46;4.63;;;3.03;;
6133;SDS011;3098;42.678;23.364;2023-03-14T04:37:13;9.63;;;3.80;;
6133;SDS011;3098;42.678;23.364;2023-03-14T04:39:40;7.27;;;4.13;;
6133;SDS011;3098;42.678;23.364;2023-03-14T04:42:07;7.23;;;3.37;;
6133;SDS011;3098;42.678;23.364;2023-03-14T04:44:34;8.13;;;4.03;;
6133;SDS011;3098;42.678;23.364;2023-03-14T04:47:02;5.73;;;2.77;;
6133;SDS011;3098;42.678;23.364;2023-03-14T04:49:29;5.80;;;3.33;;
6133;SDS011;3098;42.678;23.364;2023-03-14T04:51:56;6.63;;;3.83;;
6133;SDS011;3098;42.678;23.364;2023-03-14T04:54:23;10.40;;;4.13;;
6133;SDS011;3098;42.678;23.364;2023-03-14T04:56:50;15.77;;;4.63;;
6133;SDS011;3098;42.678;23.364;2023-03-14T04:59:18;6.00;;;3.17;;
6133;SDS011;3098;42.678;23.364;2023-03-14T05:01:45;10.03;;;4.57;;
6133;SDS011;3098;42.678;23.364;2023-03-14T05:04:15;12.33;;;4.50;;
6133;SDS011;3098;42.678;23.364;2023-03-14T05:06:41;10.13;;;4.60;;
6133;SDS011;3098;42.678;23.364;2023-03-14T05:09:09;12.20;;;5.70;;
6133;SDS011;3098;42.678;23.364;2023-03-14T05:11:36;10.03;;;4.37;;
6133;SDS011;3098;42.678;23.364;2023-03-14T05:14:03;10.83;;;5.37;;
6133;SDS011;3098;42.678;23.364;2023-03-14T05:16:30;15.23;;;5.07;;
6133;SDS011;3098;42.678;23.364;2023-03-14T05:18:57;13.63;;;5.67;;
6133;SDS011;3098;42.678;23.364;2023-03-14T05:21:27;15.77;;;5.70;;
6133;SDS011;3098;42.678;23.364;2023-03-14T05:23:54;8.43;;;4.63;;
6133;SDS011;3098;42.678;23.364;2023-03-14T05:26:21;19.17;;;7.40;;
6133;SDS011;3098;42.678;23.364;2023-03-14T05:28:48;25.77;;;6.83;;
6133;SDS011;3098;42.678;23.364;2023-03-14T05:31:16;19.47;;;6.77;;
6133;SDS011;3098;42.678;23.364;2023-03-14T05:33:42;15.90;;;8.20;;
6133;SDS011;3098;42.678;23.364;2023-03-14T05:36:09;17.00;;;7.47;;
6133;SDS011;3098;42.678;23.364;2023-03-14T05:38:38;17.03;;;6.70;;
6133;SDS011;3098;42.678;23.364;2023-03-14T05:41:05;16.77;;;8.57;;
6133;SDS011;3098;42.678;23.364;2023-03-14T05:43:32;21.60;;;7.67;;
6133;SDS011;3098;42.678;23.364;2023-03-14T05:45:59;22.37;;;9.13;;
6133;SDS011;3098;42.678;23.364;2023-03-14T05:48:26;17.20;;;8.80;;
6133;SDS011;3098;42.678;23.364;2023-03-14T05:50:57;27.53;;;10.50;;
6133;SDS011;3098;42.678;23.364;2023-03-14T05:53:25;40.13;;;12.97;;
6133;SDS011;3098;42.678;23.364;2023-03-14T05:55:55;27.43;;;12.33;;
6133;SDS011;3098;42.678;23.364;2023-03-14T05:58:23;37.13;;;11.47;;
6133;SDS011;3098;42.678;23.364;2023-03-14T06:00:50;26.42;;;12.20;;
6133;SDS011;3098;42.678;23.364;2023-03-14T06:03:17;26.83;;;11.60;;
6133;SDS011;3098;42.678;23.364;2023-03-14T06:05:44;35.25;;;12.90;;
6133;SDS011;3098;42.678;23.364;2023-03-14T06:08:12;38.70;;;13.02;;
6133;SDS011;3098;42.678;23.364;2023-03-14T06:10:38;36.50;;;12.57;;
6133;SDS011;3098;42.678;23.364;2023-03-14T06:13:07;30.25;;;12.73;;
6133;SDS011;3098;42.678;23.364;2023-03-14T06:15:34;36.50;;;13.95;;
6133;SDS011;3098;42.678;23.364;2023-03-14T06:18:02;42.03;;;15.15;;
6133;SDS011;3098;42.678;23.364;2023-03-14T06:20:29;29.58;;;14.07;;
6133;SDS011;3098;42.678;23.364;2023-03-14T06:22:58;25.13;;;11.10;;
6133;SDS011;3098;42.678;23.364;2023-03-14T06:25:25;27.50;;;11.73;;
6133;SDS011;3098;42.678;23.364;2023-03-14T06:27:52;23.85;;;10.93;;
6133;SDS011;3098;42.678;23.364;2023-03-14T06:30:21;26.98;;;10.45;;
6133;SDS011;3098;42.678;23.364;2023-03-14T06:32:48;35.70;;;10.73;;
6133;SDS011;3098;42.678;23.364;2023-03-14T06:35:16;26.33;;;11.30;;
6133;SDS011;3098;42.678;23.364;2023-03-14T06:37:43;21.33;;;8.90;;
6133;SDS011;3098;42.678;23.364;2023-03-14T06:40:11;25.08;;;9.10;;
6133;SDS011;3098;42.678;23.364;2023-03-14T06:42:41;25.17;;;7.28;;
6133;SDS011;3098;42.678;23.364;2023-03-14T06:45:09;17.27;;;6.90;;
6133;SDS011;3098;42.678;23.364;2023-03-14T06:47:37;14.15;;;7.53;;
6133;SDS011;3098;42.678;23.364;2023-03-14T06:50:05;20.50;;;8.57;;
6133;SDS011;3098;42.678;23.364;2023-03-14T06:52:34;13.45;;;6.50;;
6133;SDS011;3098;42.678;23.364;2023-03-14T06:55:01;20.83;;;8.15;;
6133;SDS011;3098;42.678;23.364;2023-03-14T06:57:28;22.05;;;8.68;;
6133;SDS011;3098;42.678;23.364;2023-03-14T06:59:56;21.05;;;8.88;;
6133;SDS011;3098;42.678;23.364;2023-03-14T07:02:24;19.23;;;7.07;;
6133;SDS011;3098;42.678;23.364;2023-03-14T07:04:52;16.50;;;6.50;;
6133;SDS011;3098;42.678;23.364;2023-03-14T07:07:19;10.40;;;6.25;;
6133;SDS011;3098;42.678;23.364;2023-03-14T07:09:46;15.65;;;7.18;;
6133;SDS011;3098;42.678;23.364;2023-03-14T07:12:14;13.35;;;7.30;;
6133;SDS011;3098;42.678;23.364;2023-03-14T07:14:42;18.27;;;7.63;;
6133;SDS011;3098;42.678;23.364;2023-03-14T07:17:09;15.77;;;7.07;;
6133;SDS011;3098;42.678;23.364;2023-03-14T07:19:36;12.50;;;6.93;;
6133;SDS011;3098;42.678;23.364;2023-03-14T07:22:05;15.02;;;7.05;;
6133;SDS011;3098;42.678;23.364;2023-03-14T07:24:32;10.18;;;6.35;;
6133;SDS011;3098;42.678;23.364;2023-03-14T07:26:59;20.33;;;6.68;;
6133;SDS011;3098;42.678;23.364;2023-03-14T07:29:26;16.55;;;6.05;;
6133;SDS011;3098;42.678;23.364;2023-03-14T07:31:53;15.27;;;6.00;;
6133;SDS011;3098;42.678;23.364;2023-03-14T07:34:21;10.90;;;6.00;;
6133;SDS011;3098;42.678;23.364;2023-03-14T07:36:48;16.50;;;6.82;;
6133;SDS011;3098;42.678;23.364;2023-03-14T07:39:17;16.80;;;6.18;;
6133;SDS011;3098;42.678;23.364;2023-03-14T07:41:44;14.75;;;7.20;;
6133;SDS011;3098;42.678;23.364;2023-03-14T07:44:12;16.45;;;7.07;;
6133;SDS011;3098;42.678;23.364;2023-03-14T07:46:39;13.88;;;7.10;;
6133;SDS011;3098;42.678;23.364;2023-03-14T07:49:06;12.50;;;6.53;;
6133;SDS011;3098;42.678;23.364;2023-03-14T07:51:34;17.75;;;7.28;;
6133;SDS011;3098;42.678;23.364;2023-03-14T07:54:01;12.65;;;5.72;;
6133;SDS011;3098;42.678;23.364;2023-03-14T07:56:29;13.00;;;6.13;;
6133;SDS011;3098;42.678;23.364;2023-03-14T07:58:56;16.13;;;6.95;;
6133;SDS011;3098;42.678;23.364;2023-03-14T08:01:25;13.15;;;5.82;;
6133;SDS011;3098;42.678;23.364;2023-03-14T08:03:52;11.48;;;5.60;;
6133;SDS011;3098;42.678;23.364;2023-03-14T08:06:19;14.32;;;7.30;;
6133;SDS011;3098;42.678;23.364;2023-03-14T08:08:46;13.10;;;6.47;;
6133;SDS011;3098;42.678;23.364;2023-03-14T08:11:13;10.85;;;6.30;;
6133;SDS011;3098;42.678;23.364;2023-03-14T08:13:41;12.38;;;6.35;;
6133;SDS011;3098;42.678;23.364;2023-03-14T08:16:14;15.48;;;6.38;;
6133;SDS011;3098;42.678;23.364;2023-03-14T08:18:42;11.70;;;5.95;;
6133;SDS011;3098;42.678;23.364;2023-03-14T08:21:12;13.10;;;6.10;;
6133;SDS011;3098;42.678;23.364;2023-03-14T08:23:39;18.00;;;7.20;;
6133;SDS011;3098;42.678;23.364;2023-03-14T08:26:06;19.77;;;8.52;;
6133;SDS011;3098;42.678;23.364;2023-03-14T08:28:34;17.60;;;8.23;;
6133;SDS011;3098;42.678;23.364;2023-03-14T08:31:02;21.75;;;9.52;;
6133;SDS011;3098;42.678;23.364;2023-03-14T08:33:30;16.50;;;6.95;;
6133;SDS011;3098;42.678;23.364;2023-03-14T08:35:58;24.95;;;6.60;;
6133;SDS011;3098;42.678;23.364;2023-03-14T08:38:26;18.15;;;7.82;;
6133;SDS011;3098;42.678;23.364;2023-03-14T08:40:57;13.50;;;6.88;;
6133;SDS011;3098;42.678;23.364;2023-03-14T08:43:25;13.52;;;6.35;;
6133;SDS011;3098;42.678;23.364;2023-03-14T08:45:53;13.70;;;7.25;;
6133;SDS011;3098;42.678;23.364;2023-03-14T08:48:24;10.52;;;5.65;;
6133;SDS011;3098;42.678;23.364;2023-03-14T08:50:55;12.65;;;5.10;;
6133;SDS011;3098;42.678;23.364;2023-03-14T08:53:22;14.00;;;5.82;;
6133;SDS011;3098;42.678;23.364;2023-03-14T08:55:52;7.28;;;3.95;;
6133;SDS011;3098;42.678;23.364;2023-03-14T08:58:19;9.13;;;4.63;;
6133;SDS011;3098;42.678;23.364;2023-03-14T09:00:47;11.20;;;5.65;;
6133;SDS011;3098;42.678;23.364;2023-03-14T09:03:15;9.38;;;4.30;;
6133;SDS011;3098;42.678;23.364;2023-03-14T09:05:43;7.65;;;4.50;;
6133;SDS011;3098;42.678;23.364;2023-03-14T09:08:11;12.43;;;4.65;;
6133;SDS011;3098;42.678;23.364;2023-03-14T09:10:38;8.50;;;5.22;;
6133;SDS011;3098;42.678;23.364;2023-03-14T09:13:05;10.65;;;5.03;;
6133;SDS011;3098;42.678;23.364;2023-03-14T09:15:32;7.55;;;3.90;;
6133;SDS011;3098;42.678;23.364;2023-03-14T09:17:59;10.32;;;4.70;;
6133;SDS011;3098;42.678;23.364;2023-03-14T09:20:26;8.25;;;3.80;;
6133;SDS011;3098;42.678;23.364;2023-03-14T09:22:54;12.00;;;4.97;;
6133;SDS011;3098;42.678;23.364;2023-03-14T09:25:21;11.38;;;4.88;;
6133;SDS011;3098;42.678;23.364;2023-03-14T09:27:49;9.02;;;4.47;;
6133;SDS011;3098;42.678;23.364;2023-03-14T09:30:16;6.63;;;4.28;;
6133;SDS011;3098;42.678;23.364;2023-03-14T09:32:43;7.32;;;4.20;;
6133;SDS011;3098;42.678;23.364;2023-03-14T09:35:10;6.05;;;3.65;;
6133;SDS011;3098;42.678;23.364;2023-03-14T09:37:37;10.13;;;4.60;;
6133;SDS011;3098;42.678;23.364;2023-03-14T09:40:09;8.13;;;4.15;;
6133;SDS011;3098;42.678;23.364;2023-03-14T09:42:39;7.97;;;4.57;;
6133;SDS011;3098;42.678;23.364;2023-03-14T09:45:10;9.25;;;5.00;;
6133;SDS011;3098;42.678;23.364;2023-03-14T09:47:42;8.10;;;4.28;;
6133;SDS011;3098;42.678;23.364;2023-03-14T09:50:12;7.72;;;4.43;;
6133;SDS011;3098;42.678;23.364;2023-03-14T09:52:41;8.90;;;4.50;;
6133;SDS011;3098;42.678;23.364;2023-03-14T09:55:14;8.95;;;4.70;;
6133;SDS011;3098;42.678;23.364;2023-03-14T09:57:43;9.82;;;4.70;;
6133;SDS011;3098;42.678;23.364;2023-03-14T10:00:14;11.13;;;4.82;;
6133;SDS011;3098;42.678;23.364;2023-03-14T10:02:45;9.65;;;5.03;;
6133;SDS011;3098;42.678;23.364;2023-03-14T10:05:17;11.77;;;4.60;;
6133;SDS011;3098;42.678;23.364;2023-03-14T10:07:46;12.25;;;5.40;;
6133;SDS011;3098;42.678;23.364;2023-03-14T10:10:16;7.85;;;4.13;;
6133;SDS011;3098;42.678;23.364;2023-03-14T10:12:46;10.35;;;4.60;;
6133;SDS011;3098;42.678;23.364;2023-03-14T10:15:22;8.95;;;4.65;;
6133;SDS011;3098;42.678;23.364;2023-03-14T10:17:51;8.70;;;4.30;;
6133;SDS011;3098;42.678;23.364;2023-03-14T10:20:26;9.65;;;4.15;;
6133;SDS011;3098;42.678;23.364;2023-03-14T10:22:58;6.57;;;3.83;;
6133;SDS011;3098;42.678;23.364;2023-03-14T10:25:28;6.13;;;3.90;;
6133;SDS011;3098;42.678;23.364;2023-03-14T10:28:00;6.35;;;2.97;;
6133;SDS011;3098;42.678;23.364;2023-03-14T10:30:30;6.78;;;3.35;;
6133;SDS011;3098;42.678;23.364;2023-03-14T10:33:09;6.55;;;3.78;;
6133;SDS011;3098;42.678;23.364;2023-03-14T10:35:38;7.07;;;3.42;;
6133;SDS011;3098;42.678;23.364;2023-03-14T10:38:10;6.50;;;3.45;;
6133;SDS011;3098;42.678;23.364;2023-03-14T10:40:41;7.35;;;3.42;;
6133;SDS011;3098;42.678;23.364;2023-03-14T10:43:15;5.93;;;3.20;;
6133;SDS011;3098;42.678;23.364;2023-03-14T10:45:51;5.68;;;3.35;;
6133;SDS011;3098;42.678;23.364;2023-03-14T10:48:23;11.43;;;3.40;;
6133;SDS011;3098;42.678;23.364;2023-03-14T10:51:02;6.47;;;3.22;;
6133;SDS011;3098;42.678;23.364;2023-03-14T10:53:39;8.32;;;3.10;;
6133;SDS011;3098;42.678;23.364;2023-03-14T10:56:09;6.82;;;3.80;;
6133;SDS011;3098;42.678;23.364;2023-03-14T10:58:41;4.82;;;2.45;;
6133;SDS011;3098;42.678;23.364;2023-03-14T11:01:25;11.20;;;2.80;;
6133;SDS011;3098;42.678;23.364;2023-03-14T11:04:00;5.00;;;2.97;;
6133;SDS011;3098;42.678;23.364;2023-03-14T11:06:39;6.80;;;2.60;;
6133;SDS011;3098;42.678;23.364;2023-03-14T11:09:12;6.25;;;2.47;;
6133;SDS011;3098;42.678;23.364;2023-03-14T11:11:47;4.35;;;2.03;;
6133;SDS011;3098;42.678;23.364;2023-03-14T11:14:19;3.38;;;2.28;;
6133;SDS011;3098;42.678;23.364;2023-03-14T11:16:56;4.40;;;2.25;;
6133;SDS011;3098;42.678;23.364;2023-03-14T11:19:38;9.65;;;2.60;;
6133;SDS011;3098;42.678;23.364;2023-03-14T11:22:21;6.22;;;2.75;;
6133;SDS011;3098;42.678;23.364;2023-03-14T11:25:11;5.85;;;2.65;;
6133;SDS011;3098;42.678;23.364;2023-03-14T11:27:46;4.55;;;2.40;;
6133;SDS011;3098;42.678;23.364;2023-03-14T11:30:24;4.53;;;2.90;;
6133;SDS011;3098;42.678;23.364;2023-03-14T11:33:02;5.28;;;3.20;;
6133;SDS011;3098;42.678;23.364;2023-03-14T11:35:36;3.92;;;2.67;;
6133;SDS011;3098;42.678;23.364;2023-03-14T11:38:10;3.97;;;2.55;;
6133;SDS011;3098;42.678;23.364;2023-03-14T11:40:47;3.75;;;2.60;;
6133;SDS011;3098;42.678;23.364;2023-03-14T11:43:19;4.75;;;2.28;;
6133;SDS011;3098;42.678;23.364;2023-03-14T11:45:54;13.98;;;2.75;;
6133;SDS011;3098;42.678;23.364;2023-03-14T11:48:29;4.85;;;2.67;;
6133;SDS011;3098;42.678;23.364;2023-03-14T11:51:04;4.85;;;2.58;;
6133;SDS011;3098;42.678;23.364;2023-03-14T11:53:40;3.60;;;2.30;;
6133;SDS011;3098;42.678;23.364;2023-03-14T11:56:14;3.88;;;2.05;;
6133;SDS011;3098;42.678;23.364;2023-03-14T11:58:49;5.30;;;2.75;;
6133;SDS011;3098;42.678;23.364;2023-03-14T12:01:21;5.50;;;2.63;;
6133;SDS011;3098;42.678;23.364;2023-03-14T12:03:54;2.88;;;2.05;;
6133;SDS011;3098;42.678;23.364;2023-03-14T12:06:35;3.30;;;2.20;;
6133;SDS011;3098;42.678;23.364;2023-03-14T12:09:08;1.77;;;1.63;;
6133;SDS011;3098;42.678;23.364;2023-03-14T12:11:38;3.42;;;2.20;;
6133;SDS011;3098;42.678;23.364;2023-03-14T12:14:20;2.33;;;1.40;;
6133;SDS011;3098;42.678;23.364;2023-03-14T12:16:54;3.85;;;1.83;;
6133;SDS011;3098;42.678;23.364;2023-03-14T12:19:32;8.27;;;2.00;;
6133;SDS011;3098;42.678;23.364;2023-03-14T12:22:05;4.78;;;1.77;;
6133;SDS011;3098;42.678;23.364;2023-03-14T12:24:41;4.35;;;2.10;;
6133;SDS011;3098;42.678;23.364;2023-03-14T12:27:13;4.72;;;2.13;;
6133;SDS011;3098;42.678;23.364;2023-03-14T12:30:17;1.85;;;1.50;;
6133;SDS011;3098;42.678;23.364;2023-03-14T12:36:02;3.20;;;1.90;;
6133;SDS011;3098;42.678;23.364;2023-03-14T12:38:52;8.10;;;1.75;;
6133;SDS011;3098;42.678;23.364;2023-03-14T12:41:41;3.83;;;1.80;;
6133;SDS011;3098;42.678;23.364;2023-03-14T12:50:20;3.97;;;2.33;;
6133;SDS011;3098;42.678;23.364;2023-03-14T12:55:53;1.63;;;1.33;;
6133;SDS011;3098;42.678;23.364;2023-03-14T12:58:27;2.28;;;1.38;;
6133;SDS011;3098;42.678;23.364;2023-03-14T13:01:01;2.58;;;1.77;;
6133;SDS011;3098;42.678;23.364;2023-03-14T13:03:42;2.20;;;1.55;;
6133;SDS011;3098;42.678;23.364;2023-03-14T13:06:12;2.08;;;1.58;;
6133;SDS011;3098;42.678;23.364;2023-03-14T13:08:39;1.88;;;1.42;;
6133;SDS011;3098;42.678;23.364;2023-03-14T13:11:09;2.88;;;1.55;;
6133;SDS011;3098;42.678;23.364;2023-03-14T13:13:41;2.60;;;1.55;;
6133;SDS011;3098;42.678;23.364;2023-03-14T13:16:14;2.42;;;1.20;;
6133;SDS011;3098;42.678;23.364;2023-03-14T13:18:45;1.30;;;1.20;;
6133;SDS011;3098;42.678;23.364;2023-03-14T13:21:14;3.70;;;1.70;;
6133;SDS011;3098;42.678;23.364;2023-03-14T13:23:54;1.88;;;1.52;;
6133;SDS011;3098;42.678;23.364;2023-03-14T13:26:23;2.72;;;1.50;;
6133;SDS011;3098;42.678;23.364;2023-03-14T13:28:58;2.38;;;1.35;;
6133;SDS011;3098;42.678;23.364;2023-03-14T13:31:26;3.85;;;1.50;;
6133;SDS011;3098;42.678;23.364;2023-03-14T13:34:00;2.65;;;1.30;;
6133;SDS011;3098;42.678;23.364;2023-03-14T13:36:28;1.48;;;1.27;;
6133;SDS011;3098;42.678;23.364;2023-03-14T13:38:56;1.95;;;1.50;;
6133;SDS011;3098;42.678;23.364;2023-03-14T13:41:25;2.85;;;1.52;;
6133;SDS011;3098;42.678;23.364;2023-03-14T13:43:56;3.33;;;1.60;;
6133;SDS011;3098;42.678;23.364;2023-03-14T13:46:29;2.78;;;1.42;;
6133;SDS011;3098;42.678;23.364;2023-03-14T13:48:57;3.22;;;1.77;;
6133;SDS011;3098;42.678;23.364;2023-03-14T13:51:29;3.08;;;1.75;;
6133;SDS011;3098;42.678;23.364;2023-03-14T13:54:00;1.33;;;1.23;;
6133;SDS011;3098;42.678;23.364;2023-03-14T13:56:28;4.47;;;1.88;;
6133;SDS011;3098;42.678;23.364;2023-03-14T13:58:57;1.83;;;1.23;;
6133;SDS011;3098;42.678;23.364;2023-03-14T14:01:26;1.80;;;1.40;;
6133;SDS011;3098;42.678;23.364;2023-03-14T14:03:57;1.83;;;1.50;;
6133;SDS011;3098;42.678;23.364;2023-03-14T14:06:30;2.78;;;1.65;;
6133;SDS011;3098;42.678;23.364;2023-03-14T14:08:59;2.75;;;1.85;;
6133;SDS011;3098;42.678;23.364;2023-03-14T14:11:32;2.90;;;1.60;;
6133;SDS011;3098;42.678;23.364;2023-03-14T14:14:05;3.95;;;1.42;;
6133;SDS011;3098;42.678;23.364;2023-03-14T14:16:37;2.88;;;1.73;;
6133;SDS011;3098;42.678;23.364;2023-03-14T14:19:06;4.20;;;1.77;;
6133;SDS011;3098;42.678;23.364;2023-03-14T14:21:34;2.60;;;1.98;;
6133;SDS011;3098;42.678;23.364;2023-03-14T14:24:01;3.25;;;1.48;;
6133;SDS011;3098;42.678;23.364;2023-03-14T14:26:30;3.17;;;1.65;;
6133;SDS011;3098;42.678;23.364;2023-03-14T14:28:58;4.15;;;1.40;;
6133;SDS011;3098;42.678;23.364;2023-03-14T14:31:27;3.67;;;1.75;;
6133;SDS011;3098;42.678;23.364;2023-03-14T14:33:55;3.50;;;1.17;;
6133;SDS011;3098;42.678;23.364;2023-03-14T14:36:24;3.55;;;1.35;;
6133;SDS011;3098;42.678;23.364;2023-03-14T14:39:04;2.10;;;1.55;;
6133;SDS011;3098;42.678;23.364;2023-03-14T14:41:39;1.75;;;1.23;;
6133;SDS011;3098;42.678;23.364;2023-03-14T14:44:10;2.55;;;1.48;;
6133;SDS011;3098;42.678;23.364;2023-03-14T14:46:39;1.10;;;1.00;;
6133;SDS011;3098;42.678;23.364;2023-03-14T14:49:09;2.75;;;1.45;;
6133;SDS011;3098;42.678;23.364;2023-03-14T14:51:41;2.90;;;1.73;;
6133;SDS011;3098;42.678;23.364;2023-03-14T14:54:12;1.40;;;1.20;;
6133;SDS011;3098;42.678;23.364;2023-03-14T14:56:45;1.55;;;1.08;;
6133;SDS011;3098;42.678;23.364;2023-03-14T14:59:20;3.90;;;1.67;;
6133;SDS011;3098;42.678;23.364;2023-03-14T15:01:49;3.92;;;1.70;;
6133;SDS011;3098;42.678;23.364;2023-03-14T15:04:17;7.30;;;1.70;;
6133;SDS011;3098;42.678;23.364;2023-03-14T15:06:45;7.30;;;1.98;;
6133;SDS011;3098;42.678;23.364;2023-03-14T15:09:17;3.78;;;1.60;;
6133;SDS011;3098;42.678;23.364;2023-03-14T15:11:45;6.65;;;1.30;;
6133;SDS011;3098;42.678;23.364;2023-03-14T15:14:12;8.63;;;1.88;;
6133;SDS011;3098;42.678;23.364;2023-03-14T15:16:40;8.88;;;1.63;;
6133;SDS011;3098;42.678;23.364;2023-03-14T15:19:12;5.28;;;1.92;;
6133;SDS011;3098;42.678;23.364;2023-03-14T15:21:45;2.90;;;1.77;;
6133;SDS011;3098;42.678;23.364;2023-03-14T15:24:12;2.40;;;1.30;;
6133;SDS011;3098;42.678;23.364;2023-03-14T15:26:41;2.03;;;1.38;;
6133;SDS011;3098;42.678;23.364;2023-03-14T15:29:09;3.28;;;1.63;;